ENTO/TRF METAR and TAF weather

Enter ICAO airport designator
Station Type Date Time Source
ENTO METAR 2018/04/27 00:50 UTC NOAA

ENTO 270050Z AUTO 22007KT 9999 NCD 04/04 Q1002


Station Type Date Time Source
ENTO Decoded METAR 2018/04/27 00:50 UTC NOAA

Torp, Norway (ENTO) 59-12N 010-16E 88M
Apr 26, 2018 - 08:50 PM EDT / 2018.04.27 0050 UTC
Wind: from the SW (220 degrees) at 8 MPH (7 KT):0
Visibility: greater than 7 mile(s):0
Temperature: 39 F (4 C)
Dew Point: 39 F (4 C)
Relative Humidity: 100%
Pressure (altimeter): 29.59 in. Hg (1002 hPa)
ob: ENTO 270050Z AUTO 22007KT 9999 NCD 04/04 Q1002
cycle: 1

Station Type Date Time Source
ENTO TAF 2018/04/27 00:06 UTC NOAA

TAF ENTO 262300Z 2700/2724 22008KT 9999 FEW040 SCT060
TEMPO 2712/2715 FEW020CB


Example: see airport list